sensor_id;sensor_type;location;lat;lon;timestamp;temperature;humidity
6552;DHT22;3309;48.708;9.290;2022-07-23T00:00:54;23.80;1.00
6552;DHT22;3309;48.708;9.290;2022-07-23T00:03:19;23.70;1.00
6552;DHT22;3309;48.708;9.290;2022-07-23T00:05:45;23.70;1.00
6552;DHT22;3309;48.708;9.290;2022-07-23T00:08:11;23.80;1.00
6552;DHT22;3309;48.708;9.290;2022-07-23T00:10:37;23.70;1.00
6552;DHT22;3309;48.708;9.290;2022-07-23T00:13:03;23.80;1.00
6552;DHT22;3309;48.708;9.290;2022-07-23T00:15:28;23.80;1.00
6552;DHT22;3309;48.708;9.290;2022-07-23T00:17:54;23.80;1.00
6552;DHT22;3309;48.708;9.290;2022-07-23T00:20:19;23.80;1.00
6552;DHT22;3309;48.708;9.290;2022-07-23T00:22:50;23.70;1.00
6552;DHT22;3309;48.708;9.290;2022-07-23T00:25:15;23.80;1.00
6552;DHT22;3309;48.708;9.290;2022-07-23T00:27:41;23.70;1.00
6552;DHT22;3309;48.708;9.290;2022-07-23T00:30:07;23.80;1.00
6552;DHT22;3309;48.708;9.290;2022-07-23T00:32:48;23.80;1.00
6552;DHT22;3309;48.708;9.290;2022-07-23T00:35:14;23.80;1.00
6552;DHT22;3309;48.708;9.290;2022-07-23T00:37:40;23.80;1.00
6552;DHT22;3309;48.708;9.290;2022-07-23T00:40:06;23.70;1.00
6552;DHT22;3309;48.708;9.290;2022-07-23T00:42:32;23.70;1.00
6552;DHT22;3309;48.708;9.290;2022-07-23T00:44:58;23.70;1.00
6552;DHT22;3309;48.708;9.290;2022-07-23T00:47:23;23.70;1.00
6552;DHT22;3309;48.708;9.290;2022-07-23T00:49:49;23.80;1.00
6552;DHT22;3309;48.708;9.290;2022-07-23T00:52:15;23.80;1.00
6552;DHT22;3309;48.708;9.290;2022-07-23T00:54:41;23.80;1.00
6552;DHT22;3309;48.708;9.290;2022-07-23T00:57:06;23.80;1.00
6552;DHT22;3309;48.708;9.290;2022-07-23T00:59:32;23.80;1.00
6552;DHT22;3309;48.708;9.290;2022-07-23T01:01:57;23.80;1.00
6552;DHT22;3309;48.708;9.290;2022-07-23T01:04:23;23.70;1.00
6552;DHT22;3309;48.708;9.290;2022-07-23T01:06:48;23.70;1.00
6552;DHT22;3309;48.708;9.290;2022-07-23T01:09:14;23.70;1.00
6552;DHT22;3309;48.708;9.290;2022-07-23T01:11:41;23.60;1.00
6552;DHT22;3309;48.708;9.290;2022-07-23T01:14:15;23.60;1.00
6552;DHT22;3309;48.708;9.290;2022-07-23T01:16:43;23.50;1.00
6552;DHT22;3309;48.708;9.290;2022-07-23T01:19:09;23.40;1.00
6552;DHT22;3309;48.708;9.290;2022-07-23T01:21:47;23.40;1.00
6552;DHT22;3309;48.708;9.290;2022-07-23T01:24:13;23.30;1.00
6552;DHT22;3309;48.708;9.290;2022-07-23T01:26:43;23.20;1.00
6552;DHT22;3309;48.708;9.290;2022-07-23T01:29:09;23.20;1.00
6552;DHT22;3309;48.708;9.290;2022-07-23T01:31:35;23.10;1.00
6552;DHT22;3309;48.708;9.290;2022-07-23T01:34:00;23.00;1.00
6552;DHT22;3309;48.708;9.290;2022-07-23T01:36:26;23.10;1.00
6552;DHT22;3309;48.708;9.290;2022-07-23T01:38:52;23.10;1.00
6552;DHT22;3309;48.708;9.290;2022-07-23T01:41:18;23.10;1.00
6552;DHT22;3309;48.708;9.290;2022-07-23T01:43:43;23.00;1.00
6552;DHT22;3309;48.708;9.290;2022-07-23T01:46:09;22.90;1.00
6552;DHT22;3309;48.708;9.290;2022-07-23T01:48:34;23.00;1.00
6552;DHT22;3309;48.708;9.290;2022-07-23T01:51:00;22.90;1.00
6552;DHT22;3309;48.708;9.290;2022-07-23T01:53:25;22.90;1.00
6552;DHT22;3309;48.708;9.290;2022-07-23T01:55:51;22.90;1.00
6552;DHT22;3309;48.708;9.290;2022-07-23T01:58:16;22.80;1.00
6552;DHT22;3309;48.708;9.290;2022-07-23T02:00:42;22.80;1.00
6552;DHT22;3309;48.708;9.290;2022-07-23T02:03:07;22.80;1.00
6552;DHT22;3309;48.708;9.290;2022-07-23T02:05:33;22.60;1.00
6552;DHT22;3309;48.708;9.290;2022-07-23T02:07:59;22.60;1.00
6552;DHT22;3309;48.708;9.290;2022-07-23T02:10:26;22.60;1.00
6552;DHT22;3309;48.708;9.290;2022-07-23T02:12:51;22.50;1.00
6552;DHT22;3309;48.708;9.290;2022-07-23T02:15:17;22.60;1.00
6552;DHT22;3309;48.708;9.290;2022-07-23T02:17:42;22.50;1.00
6552;DHT22;3309;48.708;9.290;2022-07-23T02:20:09;22.50;1.00
6552;DHT22;3309;48.708;9.290;2022-07-23T02:22:35;22.40;1.00
6552;DHT22;3309;48.708;9.290;2022-07-23T02:25:01;22.40;1.00
6552;DHT22;3309;48.708;9.290;2022-07-23T02:27:27;22.40;1.00
6552;DHT22;3309;48.708;9.290;2022-07-23T02:29:53;22.50;1.00
6552;DHT22;3309;48.708;9.290;2022-07-23T02:32:19;22.50;1.00
6552;DHT22;3309;48.708;9.290;2022-07-23T02:34:46;22.50;1.00
6552;DHT22;3309;48.708;9.290;2022-07-23T02:37:12;22.50;1.00
6552;DHT22;3309;48.708;9.290;2022-07-23T02:39:38;22.40;1.00
6552;DHT22;3309;48.708;9.290;2022-07-23T02:42:03;22.40;17.40
6552;DHT22;3309;48.708;9.290;2022-07-23T02:44:29;22.40;95.50
6552;DHT22;3309;48.708;9.290;2022-07-23T02:46:54;22.50;99.90
6552;DHT22;3309;48.708;9.290;2022-07-23T02:49:20;22.30;99.90
6552;DHT22;3309;48.708;9.290;2022-07-23T02:51:45;22.30;99.90
6552;DHT22;3309;48.708;9.290;2022-07-23T02:54:11;22.30;1.00
6552;DHT22;3309;48.708;9.290;2022-07-23T02:56:36;22.20;1.00
6552;DHT22;3309;48.708;9.290;2022-07-23T02:59:02;22.20;1.00
6552;DHT22;3309;48.708;9.290;2022-07-23T03:01:28;22.20;1.00
6552;DHT22;3309;48.708;9.290;2022-07-23T03:03:53;22.10;1.00
6552;DHT22;3309;48.708;9.290;2022-07-23T03:06:19;22.10;1.00
6552;DHT22;3309;48.708;9.290;2022-07-23T03:08:44;22.10;99.90
6552;DHT22;3309;48.708;9.290;2022-07-23T03:11:10;22.20;99.90
6552;DHT22;3309;48.708;9.290;2022-07-23T03:13:39;22.20;99.90
6552;DHT22;3309;48.708;9.290;2022-07-23T03:16:04;22.20;99.90
6552;DHT22;3309;48.708;9.290;2022-07-23T03:18:30;22.20;99.90
6552;DHT22;3309;48.708;9.290;2022-07-23T03:20:56;22.20;99.90
6552;DHT22;3309;48.708;9.290;2022-07-23T03:23:21;22.10;99.90
6552;DHT22;3309;48.708;9.290;2022-07-23T03:25:47;22.10;1.00
6552;DHT22;3309;48.708;9.290;2022-07-23T03:28:14;22.00;1.00
6552;DHT22;3309;48.708;9.290;2022-07-23T03:30:41;22.00;1.00
6552;DHT22;3309;48.708;9.290;2022-07-23T03:33:07;22.00;1.00
6552;DHT22;3309;48.708;9.290;2022-07-23T03:35:33;21.70;99.90
6552;DHT22;3309;48.708;9.290;2022-07-23T03:37:58;21.50;1.00
6552;DHT22;3309;48.708;9.290;2022-07-23T03:40:24;21.50;1.00
6552;DHT22;3309;48.708;9.290;2022-07-23T03:42:49;21.50;1.00
6552;DHT22;3309;48.708;9.290;2022-07-23T03:45:15;21.50;1.90
6552;DHT22;3309;48.708;9.290;2022-07-23T03:47:40;21.40;1.00
6552;DHT22;3309;48.708;9.290;2022-07-23T03:50:07;21.50;1.00
6552;DHT22;3309;48.708;9.290;2022-07-23T03:52:32;21.40;1.00
6552;DHT22;3309;48.708;9.290;2022-07-23T03:54:58;21.40;1.00
6552;DHT22;3309;48.708;9.290;2022-07-23T03:57:23;21.40;1.00
6552;DHT22;3309;48.708;9.290;2022-07-23T03:59:49;21.20;1.00
6552;DHT22;3309;48.708;9.290;2022-07-23T04:02:15;21.10;1.00
6552;DHT22;3309;48.708;9.290;2022-07-23T04:04:40;21.10;1.00
6552;DHT22;3309;48.708;9.290;2022-07-23T04:07:06;21.00;99.90
6552;DHT22;3309;48.708;9.290;2022-07-23T04:09:33;21.00;1.00
6552;DHT22;3309;48.708;9.290;2022-07-23T04:11:59;21.00;56.20
6552;DHT22;3309;48.708;9.290;2022-07-23T04:14:25;21.00;99.90
6552;DHT22;3309;48.708;9.290;2022-07-23T04:16:50;21.00;1.00
6552;DHT22;3309;48.708;9.290;2022-07-23T04:19:16;21.00;49.90
6552;DHT22;3309;48.708;9.290;2022-07-23T04:21:42;21.10;99.90
6552;DHT22;3309;48.708;9.290;2022-07-23T04:24:07;21.20;1.00
6552;DHT22;3309;48.708;9.290;2022-07-23T04:26:33;21.20;1.00
6552;DHT22;3309;48.708;9.290;2022-07-23T04:28:58;21.20;99.90
6552;DHT22;3309;48.708;9.290;2022-07-23T04:31:24;21.20;99.90
6552;DHT22;3309;48.708;9.290;2022-07-23T04:33:49;21.30;99.90
6552;DHT22;3309;48.708;9.290;2022-07-23T04:36:15;21.30;99.90
6552;DHT22;3309;48.708;9.290;2022-07-23T04:38:40;21.30;54.90
6552;DHT22;3309;48.708;9.290;2022-07-23T04:41:06;21.40;99.90
6552;DHT22;3309;48.708;9.290;2022-07-23T04:43:31;21.40;99.90
6552;DHT22;3309;48.708;9.290;2022-07-23T04:45:57;21.40;99.90
6552;DHT22;3309;48.708;9.290;2022-07-23T04:48:22;21.40;1.00
6552;DHT22;3309;48.708;9.290;2022-07-23T04:50:48;21.40;99.90
6552;DHT22;3309;48.708;9.290;2022-07-23T04:53:14;21.40;99.90
6552;DHT22;3309;48.708;9.290;2022-07-23T04:55:39;21.40;99.90
6552;DHT22;3309;48.708;9.290;2022-07-23T04:58:05;21.40;99.90
6552;DHT22;3309;48.708;9.290;2022-07-23T05:00:30;21.50;99.90
6552;DHT22;3309;48.708;9.290;2022-07-23T05:02:56;21.50;99.90
6552;DHT22;3309;48.708;9.290;2022-07-23T05:05:21;21.60;1.00
6552;DHT22;3309;48.708;9.290;2022-07-23T05:07:47;21.70;99.90
6552;DHT22;3309;48.708;9.290;2022-07-23T05:10:13;21.80;99.90
6552;DHT22;3309;48.708;9.290;2022-07-23T05:12:38;21.90;99.20
6552;DHT22;3309;48.708;9.290;2022-07-23T05:15:04;22.00;99.90
6552;DHT22;3309;48.708;9.290;2022-07-23T05:17:29;22.10;1.00
6552;DHT22;3309;48.708;9.290;2022-07-23T05:19:55;22.20;70.40
6552;DHT22;3309;48.708;9.290;2022-07-23T05:22:21;22.30;1.00
6552;DHT22;3309;48.708;9.290;2022-07-23T05:24:46;22.40;99.90
6552;DHT22;3309;48.708;9.290;2022-07-23T05:27:12;22.40;99.90
6552;DHT22;3309;48.708;9.290;2022-07-23T05:29:37;22.30;1.00
6552;DHT22;3309;48.708;9.290;2022-07-23T05:32:03;22.30;1.00
6552;DHT22;3309;48.708;9.290;2022-07-23T05:34:28;22.20;1.00
6552;DHT22;3309;48.708;9.290;2022-07-23T05:36:54;22.10;99.90
6552;DHT22;3309;48.708;9.290;2022-07-23T05:39:19;22.10;1.00
6552;DHT22;3309;48.708;9.290;2022-07-23T05:41:45;22.20;99.90
6552;DHT22;3309;48.708;9.290;2022-07-23T05:44:11;22.30;1.00
6552;DHT22;3309;48.708;9.290;2022-07-23T05:46:36;22.40;1.00
6552;DHT22;3309;48.708;9.290;2022-07-23T05:49:02;22.50;1.00
6552;DHT22;3309;48.708;9.290;2022-07-23T05:51:27;22.50;1.00
6552;DHT22;3309;48.708;9.290;2022-07-23T05:53:53;22.50;1.00
6552;DHT22;3309;48.708;9.290;2022-07-23T05:56:19;22.60;99.90
6552;DHT22;3309;48.708;9.290;2022-07-23T05:58:44;22.60;1.00
6552;DHT22;3309;48.708;9.290;2022-07-23T06:01:10;22.60;1.00
6552;DHT22;3309;48.708;9.290;2022-07-23T06:03:37;22.60;1.00
6552;DHT22;3309;48.708;9.290;2022-07-23T06:06:04;22.70;1.00
6552;DHT22;3309;48.708;9.290;2022-07-23T06:08:29;22.80;99.40
6552;DHT22;3309;48.708;9.290;2022-07-23T06:10:55;22.80;99.90
6552;DHT22;3309;48.708;9.290;2022-07-23T06:13:21;22.80;1.00
6552;DHT22;3309;48.708;9.290;2022-07-23T06:15:46;22.80;99.90
6552;DHT22;3309;48.708;9.290;2022-07-23T06:18:12;22.90;99.90
6552;DHT22;3309;48.708;9.290;2022-07-23T06:20:38;22.90;1.00
6552;DHT22;3309;48.708;9.290;2022-07-23T06:23:04;22.90;99.90
6552;DHT22;3309;48.708;9.290;2022-07-23T06:25:30;23.10;99.90
6552;DHT22;3309;48.708;9.290;2022-07-23T06:27:55;23.10;1.00
6552;DHT22;3309;48.708;9.290;2022-07-23T06:30:21;23.10;99.90
6552;DHT22;3309;48.708;9.290;2022-07-23T06:32:47;23.20;99.90
6552;DHT22;3309;48.708;9.290;2022-07-23T06:35:13;23.30;99.90
6552;DHT22;3309;48.708;9.290;2022-07-23T06:37:38;23.60;1.00
6552;DHT22;3309;48.708;9.290;2022-07-23T06:40:04;23.70;99.90
6552;DHT22;3309;48.708;9.290;2022-07-23T06:42:30;24.00;99.90
6552;DHT22;3309;48.708;9.290;2022-07-23T06:44:56;24.30;1.00
6552;DHT22;3309;48.708;9.290;2022-07-23T06:47:21;24.50;99.90
6552;DHT22;3309;48.708;9.290;2022-07-23T06:49:47;24.80;99.90
6552;DHT22;3309;48.708;9.290;2022-07-23T06:52:12;25.00;99.90
6552;DHT22;3309;48.708;9.290;2022-07-23T06:54:38;25.00;99.90
6552;DHT22;3309;48.708;9.290;2022-07-23T06:57:03;25.10;99.90
6552;DHT22;3309;48.708;9.290;2022-07-23T06:59:29;25.10;65.20
6552;DHT22;3309;48.708;9.290;2022-07-23T07:01:54;25.00;4.10
6552;DHT22;3309;48.708;9.290;2022-07-23T07:04:20;25.20;1.00
6552;DHT22;3309;48.708;9.290;2022-07-23T07:06:45;25.30;1.00
6552;DHT22;3309;48.708;9.290;2022-07-23T07:09:11;25.30;2.60
6552;DHT22;3309;48.708;9.290;2022-07-23T07:11:36;25.30;1.00
6552;DHT22;3309;48.708;9.290;2022-07-23T07:14:02;25.40;1.00
6552;DHT22;3309;48.708;9.290;2022-07-23T07:16:29;25.10;1.00
6552;DHT22;3309;48.708;9.290;2022-07-23T07:18:55;25.30;1.00
6552;DHT22;3309;48.708;9.290;2022-07-23T07:21:20;25.50;1.00
6552;DHT22;3309;48.708;9.290;2022-07-23T07:23:46;25.60;1.00
6552;DHT22;3309;48.708;9.290;2022-07-23T07:26:11;25.50;1.00
6552;DHT22;3309;48.708;9.290;2022-07-23T07:28:37;25.40;1.00
6552;DHT22;3309;48.708;9.290;2022-07-23T07:31:03;25.30;1.00
6552;DHT22;3309;48.708;9.290;2022-07-23T07:33:28;25.00;1.00
6552;DHT22;3309;48.708;9.290;2022-07-23T07:35:54;24.80;1.00
6552;DHT22;3309;48.708;9.290;2022-07-23T07:38:20;24.80;1.00
6552;DHT22;3309;48.708;9.290;2022-07-23T07:40:45;25.10;1.00
6552;DHT22;3309;48.708;9.290;2022-07-23T07:43:11;25.40;1.00
6552;DHT22;3309;48.708;9.290;2022-07-23T07:45:36;25.60;1.00
6552;DHT22;3309;48.708;9.290;2022-07-23T07:48:02;25.70;1.00
6552;DHT22;3309;48.708;9.290;2022-07-23T07:50:28;25.80;1.00
6552;DHT22;3309;48.708;9.290;2022-07-23T07:52:53;26.00;1.00
6552;DHT22;3309;48.708;9.290;2022-07-23T07:55:19;26.40;1.00
6552;DHT22;3309;48.708;9.290;2022-07-23T07:57:44;27.00;1.00
6552;DHT22;3309;48.708;9.290;2022-07-23T08:00:10;27.60;1.00
6552;DHT22;3309;48.708;9.290;2022-07-23T08:05:06;28.20;1.00
6552;DHT22;3309;48.708;9.290;2022-07-23T08:07:32;27.80;1.00
6552;DHT22;3309;48.708;9.290;2022-07-23T08:09:57;27.60;1.00
6552;DHT22;3309;48.708;9.290;2022-07-23T08:12:23;27.20;1.00
6552;DHT22;3309;48.708;9.290;2022-07-23T08:14:48;27.00;1.00
6552;DHT22;3309;48.708;9.290;2022-07-23T08:17:14;27.10;1.00
6552;DHT22;3309;48.708;9.290;2022-07-23T08:19:39;27.10;1.00
6552;DHT22;3309;48.708;9.290;2022-07-23T08:22:05;27.30;1.00
6552;DHT22;3309;48.708;9.290;2022-07-23T08:24:30;27.20;1.00
6552;DHT22;3309;48.708;9.290;2022-07-23T08:26:56;27.50;1.00
6552;DHT22;3309;48.708;9.290;2022-07-23T08:29:21;27.80;1.00
6552;DHT22;3309;48.708;9.290;2022-07-23T08:31:47;28.20;1.00
6552;DHT22;3309;48.708;9.290;2022-07-23T08:34:12;28.90;1.00
6552;DHT22;3309;48.708;9.290;2022-07-23T08:36:38;29.30;1.00
6552;DHT22;3309;48.708;9.290;2022-07-23T08:39:03;29.60;1.00
6552;DHT22;3309;48.708;9.290;2022-07-23T08:41:29;30.10;1.00
6552;DHT22;3309;48.708;9.290;2022-07-23T08:43:55;30.00;1.00
6552;DHT22;3309;48.708;9.290;2022-07-23T08:46:21;30.10;1.00
6552;DHT22;3309;48.708;9.290;2022-07-23T08:48:48;30.20;1.00
6552;DHT22;3309;48.708;9.290;2022-07-23T08:51:15;29.90;1.00
6552;DHT22;3309;48.708;9.290;2022-07-23T08:53:42;29.50;1.00
6552;DHT22;3309;48.708;9.290;2022-07-23T08:56:09;29.20;1.00
6552;DHT22;3309;48.708;9.290;2022-07-23T08:58:35;29.10;1.00
6552;DHT22;3309;48.708;9.290;2022-07-23T09:01:01;29.20;1.00
6552;DHT22;3309;48.708;9.290;2022-07-23T09:03:29;29.30;1.00
6552;DHT22;3309;48.708;9.290;2022-07-23T09:05:55;29.30;1.00
6552;DHT22;3309;48.708;9.290;2022-07-23T09:08:24;29.10;1.00
6552;DHT22;3309;48.708;9.290;2022-07-23T09:13:40;29.20;1.00
6552;DHT22;3309;48.708;9.290;2022-07-23T09:16:11;29.40;1.00
6552;DHT22;3309;48.708;9.290;2022-07-23T09:18:41;29.90;1.00
6552;DHT22;3309;48.708;9.290;2022-07-23T09:21:26;30.30;1.00
6552;DHT22;3309;48.708;9.290;2022-07-23T09:26:30;30.60;1.00
6552;DHT22;3309;48.708;9.290;2022-07-23T09:28:58;30.60;1.00
6552;DHT22;3309;48.708;9.290;2022-07-23T09:31:25;30.60;1.00
6552;DHT22;3309;48.708;9.290;2022-07-23T09:33:51;30.80;1.00
6552;DHT22;3309;48.708;9.290;2022-07-23T09:36:31;30.80;1.00
6552;DHT22;3309;48.708;9.290;2022-07-23T09:38:56;30.80;1.00
6552;DHT22;3309;48.708;9.290;2022-07-23T09:41:22;31.00;1.00
6552;DHT22;3309;48.708;9.290;2022-07-23T09:43:55;31.10;1.00
6552;DHT22;3309;48.708;9.290;2022-07-23T09:46:27;31.40;1.00
6552;DHT22;3309;48.708;9.290;2022-07-23T09:48:54;31.60;1.00
6552;DHT22;3309;48.708;9.290;2022-07-23T09:51:24;31.90;1.00
6552;DHT22;3309;48.708;9.290;2022-07-23T09:54:02;32.10;1.00
6552;DHT22;3309;48.708;9.290;2022-07-23T09:56:28;32.30;1.00
6552;DHT22;3309;48.708;9.290;2022-07-23T09:58:54;32.50;1.00
6552;DHT22;3309;48.708;9.290;2022-07-23T10:04:46;32.40;1.00
6552;DHT22;3309;48.708;9.290;2022-07-23T10:07:13;32.30;1.00
6552;DHT22;3309;48.708;9.290;2022-07-23T10:09:42;32.30;1.00
6552;DHT22;3309;48.708;9.290;2022-07-23T10:12:13;32.60;1.00
6552;DHT22;3309;48.708;9.290;2022-07-23T10:14:58;32.80;1.00
6552;DHT22;3309;48.708;9.290;2022-07-23T10:17:24;33.10;1.00
6552;DHT22;3309;48.708;9.290;2022-07-23T10:19:49;33.00;1.00
6552;DHT22;3309;48.708;9.290;2022-07-23T10:22:21;32.60;1.00
6552;DHT22;3309;48.708;9.290;2022-07-23T10:30:55;31.50;1.00
6552;DHT22;3309;48.708;9.290;2022-07-23T10:39:05;30.40;1.00
6552;DHT22;3309;48.708;9.290;2022-07-23T10:41:35;30.50;1.00
6552;DHT22;3309;48.708;9.290;2022-07-23T10:44:14;30.70;1.00
6552;DHT22;3309;48.708;9.290;2022-07-23T10:47:01;31.10;1.00
6552;DHT22;3309;48.708;9.290;2022-07-23T10:49:35;30.60;1.00
6552;DHT22;3309;48.708;9.290;2022-07-23T10:54:39;31.10;1.00
6552;DHT22;3309;48.708;9.290;2022-07-23T10:57:09;31.60;1.00
6552;DHT22;3309;48.708;9.290;2022-07-23T11:00:16;31.60;1.00
6552;DHT22;3309;48.708;9.290;2022-07-23T11:02:45;31.20;1.00
6552;DHT22;3309;48.708;9.290;2022-07-23T11:05:13;30.90;1.00
6552;DHT22;3309;48.708;9.290;2022-07-23T11:10:35;31.10;1.00
6552;DHT22;3309;48.708;9.290;2022-07-23T11:24:03;32.90;1.00
6552;DHT22;3309;48.708;9.290;2022-07-23T11:26:48;33.30;1.00
6552;DHT22;3309;48.708;9.290;2022-07-23T11:34:42;33.30;1.00
6552;DHT22;3309;48.708;9.290;2022-07-23T11:37:26;33.30;1.00
6552;DHT22;3309;48.708;9.290;2022-07-23T11:39:56;32.60;1.00
6552;DHT22;3309;48.708;9.290;2022-07-23T11:42:22;33.00;1.00
6552;DHT22;3309;48.708;9.290;2022-07-23T11:44:50;33.00;1.00
6552;DHT22;3309;48.708;9.290;2022-07-23T11:47:24;32.50;1.00
6552;DHT22;3309;48.708;9.290;2022-07-23T11:52:19;32.00;1.00
6552;DHT22;3309;48.708;9.290;2022-07-23T11:57:14;31.70;1.00
6552;DHT22;3309;48.708;9.290;2022-07-23T11:59:39;31.60;1.00
6552;DHT22;3309;48.708;9.290;2022-07-23T12:02:06;31.40;1.00
6552;DHT22;3309;48.708;9.290;2022-07-23T12:04:43;31.70;1.00
6552;DHT22;3309;48.708;9.290;2022-07-23T12:07:26;32.10;1.00
6552;DHT22;3309;48.708;9.290;2022-07-23T12:09:53;32.10;1.00
6552;DHT22;3309;48.708;9.290;2022-07-23T12:12:19;32.50;1.00
6552;DHT22;3309;48.708;9.290;2022-07-23T12:14:52;32.80;1.00
6552;DHT22;3309;48.708;9.290;2022-07-23T12:17:19;33.10;1.00
6552;DHT22;3309;48.708;9.290;2022-07-23T12:19:45;32.80;1.00
6552;DHT22;3309;48.708;9.290;2022-07-23T12:22:11;32.30;1.00
6552;DHT22;3309;48.708;9.290;2022-07-23T12:24:54;32.00;1.00
6552;DHT22;3309;48.708;9.290;2022-07-23T12:27:21;32.40;1.00
6552;DHT22;3309;48.708;9.290;2022-07-23T12:29:47;32.80;1.00
6552;DHT22;3309;48.708;9.290;2022-07-23T12:32:23;33.10;1.00
6552;DHT22;3309;48.708;9.290;2022-07-23T12:35:05;33.50;1.00
6552;DHT22;3309;48.708;9.290;2022-07-23T12:37:42;33.40;1.00
6552;DHT22;3309;48.708;9.290;2022-07-23T12:40:28;33.20;1.00
6552;DHT22;3309;48.708;9.290;2022-07-23T12:45:41;32.90;1.00
6552;DHT22;3309;48.708;9.290;2022-07-23T12:48:07;32.40;1.00
6552;DHT22;3309;48.708;9.290;2022-07-23T12:50:40;32.40;1.00
6552;DHT22;3309;48.708;9.290;2022-07-23T12:53:15;32.70;1.00
6552;DHT22;3309;48.708;9.290;2022-07-23T12:55:42;33.00;1.00
6552;DHT22;3309;48.708;9.290;2022-07-23T12:58:19;33.40;1.00
6552;DHT22;3309;48.708;9.290;2022-07-23T13:00:59;33.40;1.00
6552;DHT22;3309;48.708;9.290;2022-07-23T13:03:37;33.60;1.00
6552;DHT22;3309;48.708;9.290;2022-07-23T13:06:05;33.00;1.00
6552;DHT22;3309;48.708;9.290;2022-07-23T13:08:32;33.00;1.00
6552;DHT22;3309;48.708;9.290;2022-07-23T13:10:59;33.10;1.00
6552;DHT22;3309;48.708;9.290;2022-07-23T13:13:27;33.40;1.00
6552;DHT22;3309;48.708;9.290;2022-07-23T13:15:53;33.50;1.00
6552;DHT22;3309;48.708;9.290;2022-07-23T13:18:20;33.10;1.00
6552;DHT22;3309;48.708;9.290;2022-07-23T13:20:47;32.60;1.00
6552;DHT22;3309;48.708;9.290;2022-07-23T13:23:13;32.10;1.00
6552;DHT22;3309;48.708;9.290;2022-07-23T13:25:40;31.60;1.00
6552;DHT22;3309;48.708;9.290;2022-07-23T13:28:06;31.30;1.00
6552;DHT22;3309;48.708;9.290;2022-07-23T13:30:31;31.00;1.00
6552;DHT22;3309;48.708;9.290;2022-07-23T13:32:57;30.90;1.00
6552;DHT22;3309;48.708;9.290;2022-07-23T13:35:22;30.60;1.00
6552;DHT22;3309;48.708;9.290;2022-07-23T13:37:48;30.70;1.00
6552;DHT22;3309;48.708;9.290;2022-07-23T13:40:14;31.00;1.00
6552;DHT22;3309;48.708;9.290;2022-07-23T13:42:39;31.50;1.00
6552;DHT22;3309;48.708;9.290;2022-07-23T13:45:06;31.80;1.00
6552;DHT22;3309;48.708;9.290;2022-07-23T13:47:32;31.70;1.00
6552;DHT22;3309;48.708;9.290;2022-07-23T13:49:57;31.80;1.00
6552;DHT22;3309;48.708;9.290;2022-07-23T13:52:23;32.20;1.00
6552;DHT22;3309;48.708;9.290;2022-07-23T13:54:49;32.40;1.00
6552;DHT22;3309;48.708;9.290;2022-07-23T13:57:15;32.70;1.00
6552;DHT22;3309;48.708;9.290;2022-07-23T13:59:40;32.80;1.00
6552;DHT22;3309;48.708;9.290;2022-07-23T14:02:07;32.70;1.00
6552;DHT22;3309;48.708;9.290;2022-07-23T14:04:33;32.90;1.00
6552;DHT22;3309;48.708;9.290;2022-07-23T14:06:58;33.20;1.00
6552;DHT22;3309;48.708;9.290;2022-07-23T14:09:25;33.20;1.00
6552;DHT22;3309;48.708;9.290;2022-07-23T14:11:50;33.40;1.00
6552;DHT22;3309;48.708;9.290;2022-07-23T14:14:17;33.60;1.00
6552;DHT22;3309;48.708;9.290;2022-07-23T14:16:43;33.40;1.00
6552;DHT22;3309;48.708;9.290;2022-07-23T14:19:09;32.90;1.00
6552;DHT22;3309;48.708;9.290;2022-07-23T14:21:35;32.50;1.00
6552;DHT22;3309;48.708;9.290;2022-07-23T14:24:00;32.50;1.00
6552;DHT22;3309;48.708;9.290;2022-07-23T14:26:26;32.40;1.00
6552;DHT22;3309;48.708;9.290;2022-07-23T14:28:52;32.50;1.00
6552;DHT22;3309;48.708;9.290;2022-07-23T14:31:17;32.40;1.00
6552;DHT22;3309;48.708;9.290;2022-07-23T14:33:43;32.20;1.00
6552;DHT22;3309;48.708;9.290;2022-07-23T14:36:09;32.00;1.00
6552;DHT22;3309;48.708;9.290;2022-07-23T14:38:34;31.80;1.00
6552;DHT22;3309;48.708;9.290;2022-07-23T14:41:00;31.30;1.00
6552;DHT22;3309;48.708;9.290;2022-07-23T14:43:25;31.00;1.00
6552;DHT22;3309;48.708;9.290;2022-07-23T14:45:51;30.90;1.00
6552;DHT22;3309;48.708;9.290;2022-07-23T14:48:16;31.00;1.00
6552;DHT22;3309;48.708;9.290;2022-07-23T14:50:42;31.10;1.00
6552;DHT22;3309;48.708;9.290;2022-07-23T14:53:07;31.20;1.00
6552;DHT22;3309;48.708;9.290;2022-07-23T14:55:33;31.50;1.00
6552;DHT22;3309;48.708;9.290;2022-07-23T14:57:59;31.60;1.00
6552;DHT22;3309;48.708;9.290;2022-07-23T15:00:25;31.80;1.00
6552;DHT22;3309;48.708;9.290;2022-07-23T15:02:52;31.90;1.00
6552;DHT22;3309;48.708;9.290;2022-07-23T15:05:17;32.10;1.00
6552;DHT22;3309;48.708;9.290;2022-07-23T15:07:43;32.20;1.00
6552;DHT22;3309;48.708;9.290;2022-07-23T15:10:09;32.30;1.00
6552;DHT22;3309;48.708;9.290;2022-07-23T15:12:34;32.30;1.00
6552;DHT22;3309;48.708;9.290;2022-07-23T15:15:00;32.10;1.00
6552;DHT22;3309;48.708;9.290;2022-07-23T15:17:26;31.80;1.00
6552;DHT22;3309;48.708;9.290;2022-07-23T15:19:51;31.60;1.00
6552;DHT22;3309;48.708;9.290;2022-07-23T15:22:17;31.40;1.00
6552;DHT22;3309;48.708;9.290;2022-07-23T15:24:43;31.20;1.00
6552;DHT22;3309;48.708;9.290;2022-07-23T15:27:09;30.70;1.00
6552;DHT22;3309;48.708;9.290;2022-07-23T15:29:34;30.60;1.00
6552;DHT22;3309;48.708;9.290;2022-07-23T15:32:00;30.20;1.00
6552;DHT22;3309;48.708;9.290;2022-07-23T15:34:26;30.00;1.00
6552;DHT22;3309;48.708;9.290;2022-07-23T15:36:52;30.00;1.00
6552;DHT22;3309;48.708;9.290;2022-07-23T15:39:18;29.90;1.00
6552;DHT22;3309;48.708;9.290;2022-07-23T15:41:43;29.90;1.00
6552;DHT22;3309;48.708;9.290;2022-07-23T15:44:09;29.90;1.00
6552;DHT22;3309;48.708;9.290;2022-07-23T15:46:35;29.80;1.00
6552;DHT22;3309;48.708;9.290;2022-07-23T15:49:00;29.80;1.00
6552;DHT22;3309;48.708;9.290;2022-07-23T15:51:26;29.70;1.00
6552;DHT22;3309;48.708;9.290;2022-07-23T15:53:51;29.70;1.00
6552;DHT22;3309;48.708;9.290;2022-07-23T15:56:17;29.80;1.00
6552;DHT22;3309;48.708;9.290;2022-07-23T15:58:43;29.80;1.00
6552;DHT22;3309;48.708;9.290;2022-07-23T16:01:08;29.90;1.00
6552;DHT22;3309;48.708;9.290;2022-07-23T16:03:35;30.00;1.00
6552;DHT22;3309;48.708;9.290;2022-07-23T16:06:02;30.30;1.00
6552;DHT22;3309;48.708;9.290;2022-07-23T16:08:28;30.40;1.00
6552;DHT22;3309;48.708;9.290;2022-07-23T16:10:53;30.40;1.00
6552;DHT22;3309;48.708;9.290;2022-07-23T16:13:22;30.40;1.00
6552;DHT22;3309;48.708;9.290;2022-07-23T16:15:48;30.40;1.00
6552;DHT22;3309;48.708;9.290;2022-07-23T16:18:14;30.50;1.00
6552;DHT22;3309;48.708;9.290;2022-07-23T16:20:39;30.30;1.00
6552;DHT22;3309;48.708;9.290;2022-07-23T16:23:05;30.10;1.00
6552;DHT22;3309;48.708;9.290;2022-07-23T16:25:32;30.00;1.00
6552;DHT22;3309;48.708;9.290;2022-07-23T16:27:57;29.90;1.00
6552;DHT22;3309;48.708;9.290;2022-07-23T16:30:23;29.90;1.00
6552;DHT22;3309;48.708;9.290;2022-07-23T16:32:48;29.80;1.00
6552;DHT22;3309;48.708;9.290;2022-07-23T16:35:14;29.40;1.00
6552;DHT22;3309;48.708;9.290;2022-07-23T16:37:40;29.50;1.00
6552;DHT22;3309;48.708;9.290;2022-07-23T16:40:07;29.40;1.00
6552;DHT22;3309;48.708;9.290;2022-07-23T16:42:33;29.40;1.00
6552;DHT22;3309;48.708;9.290;2022-07-23T16:44:59;29.30;1.00
6552;DHT22;3309;48.708;9.290;2022-07-23T16:47:24;29.20;1.00
6552;DHT22;3309;48.708;9.290;2022-07-23T16:49:50;29.20;1.00
6552;DHT22;3309;48.708;9.290;2022-07-23T16:52:16;29.10;1.00
6552;DHT22;3309;48.708;9.290;2022-07-23T16:54:42;29.00;1.00
6552;DHT22;3309;48.708;9.290;2022-07-23T16:57:07;29.10;1.00
6552;DHT22;3309;48.708;9.290;2022-07-23T16:59:33;28.80;1.00
6552;DHT22;3309;48.708;9.290;2022-07-23T17:01:59;28.70;1.00
6552;DHT22;3309;48.708;9.290;2022-07-23T17:04:25;28.70;1.00